createdAt,value
2023-03-21T00:18:24.182Z,99.86
2023-03-21T00:23:16.433Z,100.00
2023-03-21T00:28:08.867Z,100.00
2023-03-21T00:33:05.978Z,100.00
2023-03-21T00:38:03.895Z,100.00
2023-03-21T00:42:59.299Z,100.00
2023-03-21T00:47:51.096Z,100.00
2023-03-21T00:52:42.948Z,100.00
2023-03-21T00:57:39.320Z,100.00
2023-03-21T01:02:31.486Z,100.00
2023-03-21T01:07:23.154Z,100.00
2023-03-21T01:12:14.821Z,100.00
2023-03-21T01:17:06.589Z,100.00
2023-03-21T01:21:58.325Z,100.00
2023-03-21T01:26:50.329Z,100.00
2023-03-21T01:31:42.182Z,100.00
2023-03-21T01:36:33.953Z,100.00
2023-03-21T01:41:43.038Z,100.00
2023-03-21T01:47:12.565Z,100.00
2023-03-21T01:52:23.526Z,100.00
2023-03-21T01:57:49.412Z,100.00
2023-03-21T02:02:52.571Z,100.00
2023-03-21T02:07:44.873Z,100.00
2023-03-21T02:12:37.190Z,100.00
2023-03-21T02:17:43.679Z,100.00
2023-03-21T02:22:54.593Z,100.00
2023-03-21T02:28:09.668Z,100.00
2023-03-21T02:33:47.474Z,100.00
2023-03-21T02:39:04.369Z,100.00
2023-03-21T02:44:09.490Z,100.00
2023-03-21T02:49:09.276Z,100.00
2023-03-21T02:54:29.952Z,100.00
2023-03-21T02:59:23.554Z,100.00
2023-03-21T03:04:27.277Z,100.00
2023-03-21T03:10:07.923Z,100.00
2023-03-21T03:15:11.691Z,100.00
2023-03-21T03:20:48.879Z,100.00
2023-03-21T03:26:08.952Z,100.00
2023-03-21T03:31:09.783Z,100.00
2023-03-21T03:36:06.537Z,100.00
2023-03-21T03:41:17.551Z,100.00
2023-03-21T03:46:23.529Z,100.00
2023-03-21T03:51:38.440Z,100.00
2023-03-21T03:56:31.858Z,100.00
2023-03-21T04:01:23.662Z,100.00
2023-03-21T04:06:16.908Z,100.00
2023-03-21T04:11:10.176Z,100.00
2023-03-21T04:16:02.722Z,100.00
2023-03-21T04:20:54.424Z,100.00
2023-03-21T04:31:05.087Z,100.00
2023-03-21T04:36:03.319Z,100.00
2023-03-21T04:40:57.397Z,100.00
2023-03-21T04:51:26.951Z,100.00
2023-03-21T05:02:16.302Z,100.00
2023-03-21T05:07:08.533Z,100.00
2023-03-21T05:12:00.580Z,100.00
2023-03-21T05:16:57.194Z,100.00
2023-03-21T05:21:50.313Z,100.00
2023-03-21T05:26:45.104Z,100.00
2023-03-21T05:31:37.491Z,100.00
2023-03-21T05:36:29.355Z,100.00
2023-03-21T05:41:21.443Z,100.00
2023-03-21T05:46:14.311Z,100.00
2023-03-21T05:56:12.790Z,100.00
2023-03-21T06:01:06.873Z,100.00
2023-03-21T06:05:58.758Z,100.00
2023-03-21T06:16:00.393Z,100.00
2023-03-21T06:20:52.197Z,100.00
2023-03-21T06:25:45.355Z,100.00
2023-03-21T06:30:39.235Z,100.00
2023-03-21T06:35:31.136Z,100.00
2023-03-21T06:40:22.883Z,100.00
2023-03-21T06:45:26.780Z,100.00
2023-03-21T06:55:27.054Z,100.00
2023-03-21T07:10:33.252Z,100.00
2023-03-21T07:15:26.001Z,100.00
2023-03-21T07:20:26.221Z,100.00
2023-03-21T07:25:22.244Z,96.76
2023-03-21T07:30:16.346Z,94.22
2023-03-21T07:35:15.219Z,92.50
2023-03-21T07:55:44.878Z,86.02
2023-03-21T08:05:44.366Z,83.91
2023-03-21T08:10:44.808Z,82.62
2023-03-21T08:20:44.495Z,82.20
2023-03-21T08:25:36.708Z,82.39
2023-03-21T08:30:33.559Z,82.60
2023-03-21T08:35:32.229Z,83.71
2023-03-21T08:40:27.739Z,80.41
2023-03-21T08:45:20.149Z,79.03
2023-03-21T08:55:31.393Z,77.83
2023-03-21T09:00:23.472Z,77.38
2023-03-21T09:05:16.699Z,72.62
2023-03-21T09:10:22.355Z,70.29
2023-03-21T09:15:14.728Z,69.89
2023-03-21T09:20:11.187Z,68.07
2023-03-21T09:25:08.244Z,66.74
2023-03-21T09:30:24.197Z,65.91
2023-03-21T09:35:20.590Z,64.73
2023-03-21T09:40:45.512Z,65.80
2023-03-21T09:56:16.975Z,65.43
2023-03-21T10:01:28.287Z,66.41
2023-03-21T10:06:27.145Z,66.40
2023-03-21T10:11:35.757Z,65.64
2023-03-21T10:16:33.314Z,64.04
2023-03-21T10:21:56.657Z,63.20
2023-03-21T10:26:41.730Z,61.31
2023-03-21T10:36:40.718Z,59.88
2023-03-21T10:41:42.640Z,60.44
2023-03-21T10:51:42.993Z,61.14
2023-03-21T10:56:57.959Z,61.38
2023-03-21T11:01:57.805Z,60.88
2023-03-21T11:07:07.855Z,60.42
2023-03-21T11:27:57.565Z,61.14
2023-03-21T11:32:58.411Z,58.49
2023-03-21T11:37:57.656Z,58.08
2023-03-21T11:43:37.430Z,57.88
2023-03-21T11:48:31.578Z,58.50
2023-03-21T11:54:06.796Z,58.44
2023-03-21T11:59:33.109Z,57.28
2023-03-21T12:05:20.465Z,56.30
2023-03-21T12:10:34.080Z,56.26
2023-03-21T12:15:55.382Z,55.74
2023-03-21T12:43:07.474Z,53.54
2023-03-21T12:48:25.460Z,52.85
2023-03-21T13:10:28.375Z,50.50
2023-03-21T13:15:30.087Z,49.42
2023-03-21T13:36:44.297Z,49.35
2023-03-21T13:57:39.389Z,48.64
2023-03-21T14:02:38.385Z,49.00
2023-03-21T14:49:46.734Z,51.34
2023-03-21T14:54:48.397Z,50.88
2023-03-21T15:10:19.383Z,50.46
2023-03-21T15:46:49.082Z,45.89
2023-03-21T16:02:54.805Z,46.72
2023-03-21T16:07:47.369Z,47.42
2023-03-21T16:12:39.674Z,50.33
2023-03-21T16:17:38.464Z,53.39
2023-03-21T16:22:34.733Z,54.98
2023-03-21T16:27:33.876Z,55.05
2023-03-21T16:32:25.610Z,56.80
2023-03-21T16:37:17.332Z,58.91
2023-03-21T16:42:13.529Z,60.58
2023-03-21T16:47:18.529Z,60.88
2023-03-21T16:52:12.802Z,62.64
2023-03-21T16:57:08.334Z,63.56
2023-03-21T17:02:00.604Z,65.07
2023-03-21T17:06:54.938Z,66.70
2023-03-21T17:11:47.543Z,67.56
2023-03-21T17:16:42.680Z,68.44
2023-03-21T17:21:34.439Z,68.58
2023-03-21T17:26:28.753Z,68.32
2023-03-21T17:31:23.166Z,70.23
2023-03-21T17:36:40.465Z,71.62
2023-03-21T17:41:33.016Z,71.55
2023-03-21T17:46:27.382Z,72.16
2023-03-21T17:51:19.559Z,72.81
2023-03-21T17:56:20.688Z,73.53
2023-03-21T18:01:12.603Z,74.65
2023-03-21T18:06:05.830Z,74.21
2023-03-21T18:10:57.959Z,75.17
2023-03-21T18:15:50.622Z,75.38
2023-03-21T18:20:53.622Z,75.08
2023-03-21T18:25:47.142Z,75.69
2023-03-21T18:30:53.469Z,75.96
2023-03-21T18:35:58.733Z,76.70
2023-03-21T18:40:50.927Z,77.14
2023-03-21T18:45:43.043Z,77.57
2023-03-21T18:50:35.581Z,79.11
2023-03-21T18:55:45.046Z,79.43
2023-03-21T19:00:40.967Z,79.43
2023-03-21T19:05:32.868Z,80.50
2023-03-21T19:10:24.842Z,79.90
2023-03-21T19:15:21.047Z,80.17
2023-03-21T19:20:13.967Z,80.50
2023-03-21T19:25:07.778Z,81.01
2023-03-21T19:30:13.869Z,81.74
2023-03-21T19:35:09.353Z,81.93
2023-03-21T19:40:01.064Z,81.97
2023-03-21T19:44:52.757Z,82.63
2023-03-21T19:54:56.315Z,83.65
2023-03-21T19:59:53.699Z,83.72
2023-03-21T20:04:45.757Z,83.80
2023-03-21T20:09:51.206Z,83.79
2023-03-21T20:14:48.500Z,84.05
2023-03-21T20:19:41.231Z,84.31
2023-03-21T20:24:34.100Z,84.58
2023-03-21T20:30:07.481Z,84.77
2023-03-21T20:34:38.379Z,84.88
2023-03-21T20:39:30.344Z,85.38
2023-03-21T20:49:34.075Z,86.20
2023-03-21T20:54:26.323Z,86.55
2023-03-21T20:59:26.507Z,86.91
2023-03-21T21:04:20.581Z,86.97
2023-03-21T21:09:12.933Z,87.29
2023-03-21T21:14:05.138Z,88.20
2023-03-21T21:18:57.460Z,88.41
2023-03-21T21:23:49.260Z,89.58
2023-03-21T21:28:43.325Z,89.90
2023-03-21T21:33:38.693Z,89.74
2023-03-21T21:38:30.463Z,90.38
2023-03-21T21:43:22.925Z,90.81
2023-03-21T21:48:15.981Z,91.15
2023-03-21T21:53:09.886Z,91.00
2023-03-21T21:58:03.485Z,90.98
2023-03-21T22:02:55.807Z,91.34
2023-03-21T22:07:54.210Z,91.78
2023-03-21T22:12:46.207Z,91.91
2023-03-21T22:17:41.461Z,92.46
2023-03-21T22:22:37.819Z,93.18
2023-03-21T22:27:30.205Z,93.29
2023-03-21T22:32:23.245Z,93.07
2023-03-21T22:37:15.390Z,93.18
2023-03-21T22:42:07.199Z,93.42
2023-03-21T22:46:59.100Z,93.71
2023-03-21T22:56:57.495Z,94.30
2023-03-21T23:18:07.468Z,95.56
2023-03-21T23:22:59.124Z,95.92
2023-03-21T23:27:51.131Z,95.91
2023-03-21T23:32:42.983Z,96.20
2023-03-21T23:37:34.667Z,96.91
2023-03-21T23:42:30.204Z,97.85
2023-03-21T23:47:21.952Z,98.68
2023-03-21T23:52:13.742Z,98.79
2023-03-21T23:57:05.517Z,97.56
